West Valley, New York
Current Conditions -  °F | °C
As of 1:35 PM on Thursday 23 Oct 2014 (Local Time) from KOLE Reporting Station
Clear Clear  
Wind Chill: 52°   Ceiling: Unl
Heat Index: 52°   Visibility: 10mi
Dew Point: 41°   Wind: 17mph
Humidity: 67%   Direction: 330°NNW
Pressure: 30.03"   Gusts: 23mph
Location:  42.4°N, 78.61°W
Report Text: KOLE 231735Z AUTO 33015G20KT 10SM CLR 11/05 A3003 RMK AO2
Loading
Personal Weather Stations






























Interactive Weather Map
Tropical Storm Tracking
New forecast layout! Learn more

10-Day Weather Forecast

Advertisements
Track Severe Weather on mobile